sensor_id;sensor_type;location;lat;lon;timestamp;P1;durP1;ratioP1;P2;durP2;ratioP2
9304;SDS011;4690;52.422;13.486;2022-09-06T00:05:56;4.05;;;1.90;;
9304;SDS011;4690;52.422;13.486;2022-09-06T00:08:21;3.45;;;2.00;;
9304;SDS011;4690;52.422;13.486;2022-09-06T00:10:47;3.35;;;2.20;;
9304;SDS011;4690;52.422;13.486;2022-09-06T00:13:21;3.72;;;1.80;;
9304;SDS011;4690;52.422;13.486;2022-09-06T00:15:47;4.47;;;2.20;;
9304;SDS011;4690;52.422;13.486;2022-09-06T00:18:13;4.28;;;1.90;;
9304;SDS011;4690;52.422;13.486;2022-09-06T00:20:39;4.30;;;1.85;;
9304;SDS011;4690;52.422;13.486;2022-09-06T00:23:05;2.33;;;2.00;;
9304;SDS011;4690;52.422;13.486;2022-09-06T00:25:32;2.53;;;2.20;;
9304;SDS011;4690;52.422;13.486;2022-09-06T00:28:00;3.13;;;1.70;;
9304;SDS011;4690;52.422;13.486;2022-09-06T00:30:30;3.90;;;2.00;;
9304;SDS011;4690;52.422;13.486;2022-09-06T00:32:57;4.65;;;2.08;;
9304;SDS011;4690;52.422;13.486;2022-09-06T00:35:23;2.25;;;1.63;;
9304;SDS011;4690;52.422;13.486;2022-09-06T00:37:51;3.78;;;1.75;;
9304;SDS011;4690;52.422;13.486;2022-09-06T00:40:25;2.55;;;1.85;;
9304;SDS011;4690;52.422;13.486;2022-09-06T00:42:53;3.45;;;1.75;;
9304;SDS011;4690;52.422;13.486;2022-09-06T00:45:22;3.17;;;1.83;;
9304;SDS011;4690;52.422;13.486;2022-09-06T00:47:51;3.97;;;1.95;;
9304;SDS011;4690;52.422;13.486;2022-09-06T00:50:17;3.13;;;1.80;;
9304;SDS011;4690;52.422;13.486;2022-09-06T00:52:44;4.05;;;1.80;;
9304;SDS011;4690;52.422;13.486;2022-09-06T00:55:15;1.92;;;1.63;;
9304;SDS011;4690;52.422;13.486;2022-09-06T00:57:42;3.50;;;1.83;;
9304;SDS011;4690;52.422;13.486;2022-09-06T01:00:10;3.80;;;1.88;;
9304;SDS011;4690;52.422;13.486;2022-09-06T01:02:37;2.42;;;2.20;;
9304;SDS011;4690;52.422;13.486;2022-09-06T01:05:03;2.92;;;1.65;;
9304;SDS011;4690;52.422;13.486;2022-09-06T01:07:34;3.20;;;1.70;;
9304;SDS011;4690;52.422;13.486;2022-09-06T01:10:30;4.40;;;1.98;;
9304;SDS011;4690;52.422;13.486;2022-09-06T01:16:17;2.38;;;1.70;;
9304;SDS011;4690;52.422;13.486;2022-09-06T01:18:59;3.03;;;1.88;;
9304;SDS011;4690;52.422;13.486;2022-09-06T01:22:10;2.50;;;1.65;;
9304;SDS011;4690;52.422;13.486;2022-09-06T01:36:35;5.53;;;1.73;;
9304;SDS011;4690;52.422;13.486;2022-09-06T01:39:23;3.20;;;1.60;;
9304;SDS011;4690;52.422;13.486;2022-09-06T01:41:53;3.00;;;2.15;;
9304;SDS011;4690;52.422;13.486;2022-09-06T01:44:22;2.47;;;1.73;;
9304;SDS011;4690;52.422;13.486;2022-09-06T02:01:26;1.98;;;1.70;;
9304;SDS011;4690;52.422;13.486;2022-09-06T02:04:23;2.67;;;1.80;;
9304;SDS011;4690;52.422;13.486;2022-09-06T02:07:07;4.57;;;1.80;;
9304;SDS011;4690;52.422;13.486;2022-09-06T02:09:48;1.58;;;1.48;;
9304;SDS011;4690;52.422;13.486;2022-09-06T02:12:32;3.03;;;1.58;;
9304;SDS011;4690;52.422;13.486;2022-09-06T02:15:14;1.88;;;1.65;;
9304;SDS011;4690;52.422;13.486;2022-09-06T02:17:57;2.03;;;1.60;;
9304;SDS011;4690;52.422;13.486;2022-09-06T02:20:30;2.08;;;1.67;;
9304;SDS011;4690;52.422;13.486;2022-09-06T02:23:04;4.40;;;1.60;;
9304;SDS011;4690;52.422;13.486;2022-09-06T02:25:33;3.25;;;1.60;;
9304;SDS011;4690;52.422;13.486;2022-09-06T02:28:04;3.87;;;1.63;;
9304;SDS011;4690;52.422;13.486;2022-09-06T02:30:37;3.15;;;2.00;;
9304;SDS011;4690;52.422;13.486;2022-09-06T02:33:11;4.82;;;1.67;;
9304;SDS011;4690;52.422;13.486;2022-09-06T02:35:44;1.77;;;1.60;;
9304;SDS011;4690;52.422;13.486;2022-09-06T02:38:20;2.50;;;1.45;;
9304;SDS011;4690;52.422;13.486;2022-09-06T02:40:49;2.00;;;1.67;;
9304;SDS011;4690;52.422;13.486;2022-09-06T02:43:18;3.03;;;1.48;;
9304;SDS011;4690;52.422;13.486;2022-09-06T02:45:45;2.20;;;1.57;;
9304;SDS011;4690;52.422;13.486;2022-09-06T02:48:11;3.93;;;1.83;;
9304;SDS011;4690;52.422;13.486;2022-09-06T02:50:36;4.80;;;1.70;;
9304;SDS011;4690;52.422;13.486;2022-09-06T02:53:09;3.47;;;1.60;;
9304;SDS011;4690;52.422;13.486;2022-09-06T02:55:37;3.53;;;1.80;;
9304;SDS011;4690;52.422;13.486;2022-09-06T02:58:04;4.27;;;1.90;;
9304;SDS011;4690;52.422;13.486;2022-09-06T03:00:32;2.07;;;1.77;;
9304;SDS011;4690;52.422;13.486;2022-09-06T03:02:58;3.40;;;1.77;;
9304;SDS011;4690;52.422;13.486;2022-09-06T03:05:24;1.88;;;1.67;;
9304;SDS011;4690;52.422;13.486;2022-09-06T03:07:52;3.10;;;1.87;;
9304;SDS011;4690;52.422;13.486;2022-09-06T03:10:19;1.90;;;1.80;;
9304;SDS011;4690;52.422;13.486;2022-09-06T03:12:46;5.43;;;1.90;;
9304;SDS011;4690;52.422;13.486;2022-09-06T03:15:13;3.50;;;1.80;;
9304;SDS011;4690;52.422;13.486;2022-09-06T03:17:40;2.23;;;1.70;;
9304;SDS011;4690;52.422;13.486;2022-09-06T03:20:07;3.30;;;1.50;;
9304;SDS011;4690;52.422;13.486;2022-09-06T03:22:35;4.13;;;1.75;;
9304;SDS011;4690;52.422;13.486;2022-09-06T03:25:06;2.27;;;1.80;;
9304;SDS011;4690;52.422;13.486;2022-09-06T03:27:33;2.33;;;1.83;;
9304;SDS011;4690;52.422;13.486;2022-09-06T03:29:59;3.38;;;1.88;;
9304;SDS011;4690;52.422;13.486;2022-09-06T03:32:25;3.27;;;1.50;;
9304;SDS011;4690;52.422;13.486;2022-09-06T03:34:51;2.50;;;1.90;;
9304;SDS011;4690;52.422;13.486;2022-09-06T03:37:16;2.90;;;1.90;;
9304;SDS011;4690;52.422;13.486;2022-09-06T03:39:43;5.83;;;1.87;;
9304;SDS011;4690;52.422;13.486;2022-09-06T03:42:09;5.17;;;2.07;;
9304;SDS011;4690;52.422;13.486;2022-09-06T03:44:35;1.83;;;1.60;;
9304;SDS011;4690;52.422;13.486;2022-09-06T03:47:00;3.33;;;1.80;;
9304;SDS011;4690;52.422;13.486;2022-09-06T03:49:27;2.80;;;1.60;;
9304;SDS011;4690;52.422;13.486;2022-09-06T03:51:53;2.78;;;1.75;;
9304;SDS011;4690;52.422;13.486;2022-09-06T03:54:18;3.70;;;1.80;;
9304;SDS011;4690;52.422;13.486;2022-09-06T03:56:44;4.53;;;2.00;;
9304;SDS011;4690;52.422;13.486;2022-09-06T03:59:10;5.13;;;2.00;;
9304;SDS011;4690;52.422;13.486;2022-09-06T04:01:35;2.23;;;2.03;;
9304;SDS011;4690;52.422;13.486;2022-09-06T04:04:01;3.13;;;1.80;;
9304;SDS011;4690;52.422;13.486;2022-09-06T04:06:27;5.33;;;2.00;;
9304;SDS011;4690;52.422;13.486;2022-09-06T04:08:53;2.78;;;1.83;;
9304;SDS011;4690;52.422;13.486;2022-09-06T04:11:18;2.10;;;1.90;;
9304;SDS011;4690;52.422;13.486;2022-09-06T04:13:44;2.10;;;1.90;;
9304;SDS011;4690;52.422;13.486;2022-09-06T04:16:10;3.47;;;1.90;;
9304;SDS011;4690;52.422;13.486;2022-09-06T04:18:36;2.47;;;2.00;;
9304;SDS011;4690;52.422;13.486;2022-09-06T04:21:01;4.77;;;2.00;;
9304;SDS011;4690;52.422;13.486;2022-09-06T04:23:27;3.10;;;1.80;;
9304;SDS011;4690;52.422;13.486;2022-09-06T04:25:54;2.53;;;1.83;;
9304;SDS011;4690;52.422;13.486;2022-09-06T04:28:23;3.33;;;1.80;;
9304;SDS011;4690;52.422;13.486;2022-09-06T04:30:51;4.40;;;1.90;;
9304;SDS011;4690;52.422;13.486;2022-09-06T04:33:26;3.23;;;2.03;;
9304;SDS011;4690;52.422;13.486;2022-09-06T04:35:54;3.67;;;2.07;;
9304;SDS011;4690;52.422;13.486;2022-09-06T04:38:23;3.40;;;1.90;;
9304;SDS011;4690;52.422;13.486;2022-09-06T04:40:50;3.17;;;1.80;;
9304;SDS011;4690;52.422;13.486;2022-09-06T04:43:16;3.67;;;2.00;;
9304;SDS011;4690;52.422;13.486;2022-09-06T04:45:43;2.90;;;1.80;;
9304;SDS011;4690;52.422;13.486;2022-09-06T04:48:09;3.63;;;2.00;;
9304;SDS011;4690;52.422;13.486;2022-09-06T04:50:35;2.37;;;1.90;;
9304;SDS011;4690;52.422;13.486;2022-09-06T04:53:02;2.57;;;1.93;;
9304;SDS011;4690;52.422;13.486;2022-09-06T04:55:28;2.77;;;1.63;;
9304;SDS011;4690;52.422;13.486;2022-09-06T04:57:55;3.47;;;2.17;;
9304;SDS011;4690;52.422;13.486;2022-09-06T05:00:25;4.00;;;1.80;;
9304;SDS011;4690;52.422;13.486;2022-09-06T05:02:52;4.43;;;2.10;;
9304;SDS011;4690;52.422;13.486;2022-09-06T05:05:19;2.37;;;1.93;;
9304;SDS011;4690;52.422;13.486;2022-09-06T05:07:46;2.77;;;1.90;;
9304;SDS011;4690;52.422;13.486;2022-09-06T05:10:15;2.70;;;2.10;;
9304;SDS011;4690;52.422;13.486;2022-09-06T05:12:40;5.43;;;2.00;;
9304;SDS011;4690;52.422;13.486;2022-09-06T05:15:06;2.03;;;1.83;;
9304;SDS011;4690;52.422;13.486;2022-09-06T05:17:33;3.00;;;1.97;;
9304;SDS011;4690;52.422;13.486;2022-09-06T05:19:58;2.83;;;1.97;;
9304;SDS011;4690;52.422;13.486;2022-09-06T05:22:24;5.33;;;2.00;;
9304;SDS011;4690;52.422;13.486;2022-09-06T05:24:50;4.07;;;1.80;;
9304;SDS011;4690;52.422;13.486;2022-09-06T05:27:16;3.40;;;2.03;;
9304;SDS011;4690;52.422;13.486;2022-09-06T05:29:42;4.57;;;2.13;;
9304;SDS011;4690;52.422;13.486;2022-09-06T05:32:07;5.63;;;1.97;;
9304;SDS011;4690;52.422;13.486;2022-09-06T05:34:33;7.43;;;2.00;;
9304;SDS011;4690;52.422;13.486;2022-09-06T05:36:59;4.07;;;1.80;;
9304;SDS011;4690;52.422;13.486;2022-09-06T05:39:24;3.00;;;2.07;;
9304;SDS011;4690;52.422;13.486;2022-09-06T05:41:50;2.73;;;1.70;;
9304;SDS011;4690;52.422;13.486;2022-09-06T05:44:16;2.00;;;1.90;;
9304;SDS011;4690;52.422;13.486;2022-09-06T05:46:42;2.70;;;1.83;;
9304;SDS011;4690;52.422;13.486;2022-09-06T05:49:09;2.00;;;1.80;;
9304;SDS011;4690;52.422;13.486;2022-09-06T05:51:36;3.38;;;2.00;;
9304;SDS011;4690;52.422;13.486;2022-09-06T05:54:04;3.03;;;1.90;;
9304;SDS011;4690;52.422;13.486;2022-09-06T05:56:30;1.80;;;1.70;;
9304;SDS011;4690;52.422;13.486;2022-09-06T05:58:55;4.50;;;2.05;;
9304;SDS011;4690;52.422;13.486;2022-09-06T06:03:53;2.17;;;1.92;;
9304;SDS011;4690;52.422;13.486;2022-09-06T06:06:30;3.15;;;2.13;;
9304;SDS011;4690;52.422;13.486;2022-09-06T06:08:58;2.17;;;1.98;;
9304;SDS011;4690;52.422;13.486;2022-09-06T06:11:24;5.17;;;2.00;;
9304;SDS011;4690;52.422;13.486;2022-09-06T06:13:51;1.90;;;1.80;;
9304;SDS011;4690;52.422;13.486;2022-09-06T06:16:18;3.85;;;1.90;;
9304;SDS011;4690;52.422;13.486;2022-09-06T06:18:46;5.55;;;1.90;;
9304;SDS011;4690;52.422;13.486;2022-09-06T06:21:13;5.40;;;2.05;;
9304;SDS011;4690;52.422;13.486;2022-09-06T06:23:40;4.47;;;2.15;;
9304;SDS011;4690;52.422;13.486;2022-09-06T06:26:08;6.43;;;2.03;;
9304;SDS011;4690;52.422;13.486;2022-09-06T06:28:36;5.50;;;2.30;;
9304;SDS011;4690;52.422;13.486;2022-09-06T06:31:03;5.78;;;2.05;;
9304;SDS011;4690;52.422;13.486;2022-09-06T06:33:30;2.10;;;1.90;;
9304;SDS011;4690;52.422;13.486;2022-09-06T06:36:00;2.60;;;1.60;;
9304;SDS011;4690;52.422;13.486;2022-09-06T06:38:37;1.88;;;1.77;;
9304;SDS011;4690;52.422;13.486;2022-09-06T06:41:06;4.40;;;2.25;;
9304;SDS011;4690;52.422;13.486;2022-09-06T06:43:34;4.07;;;1.90;;
9304;SDS011;4690;52.422;13.486;2022-09-06T06:46:02;2.50;;;2.13;;
9304;SDS011;4690;52.422;13.486;2022-09-06T06:48:35;4.07;;;1.90;;
9304;SDS011;4690;52.422;13.486;2022-09-06T06:51:04;7.10;;;2.00;;
9304;SDS011;4690;52.422;13.486;2022-09-06T06:53:31;5.25;;;2.13;;
9304;SDS011;4690;52.422;13.486;2022-09-06T06:55:57;2.60;;;2.00;;
9304;SDS011;4690;52.422;13.486;2022-09-06T06:58:23;3.85;;;2.22;;
9304;SDS011;4690;52.422;13.486;2022-09-06T07:00:49;2.50;;;2.00;;
9304;SDS011;4690;52.422;13.486;2022-09-06T07:03:15;3.28;;;2.10;;
9304;SDS011;4690;52.422;13.486;2022-09-06T07:05:41;2.78;;;1.85;;
9304;SDS011;4690;52.422;13.486;2022-09-06T07:08:12;6.45;;;2.15;;
9304;SDS011;4690;52.422;13.486;2022-09-06T07:10:38;4.10;;;2.10;;
9304;SDS011;4690;52.422;13.486;2022-09-06T07:13:03;5.00;;;2.40;;
9304;SDS011;4690;52.422;13.486;2022-09-06T07:15:29;5.22;;;2.47;;
9304;SDS011;4690;52.422;13.486;2022-09-06T07:17:55;4.18;;;2.10;;
9304;SDS011;4690;52.422;13.486;2022-09-06T07:20:22;2.50;;;2.00;;
9304;SDS011;4690;52.422;13.486;2022-09-06T07:23:02;2.45;;;2.20;;
9304;SDS011;4690;52.422;13.486;2022-09-06T07:25:30;5.40;;;2.15;;
9304;SDS011;4690;52.422;13.486;2022-09-06T07:28:00;4.72;;;2.10;;
9304;SDS011;4690;52.422;13.486;2022-09-06T07:30:31;3.45;;;2.20;;
9304;SDS011;4690;52.422;13.486;2022-09-06T07:33:00;2.40;;;2.15;;
9304;SDS011;4690;52.422;13.486;2022-09-06T07:35:29;2.85;;;2.42;;
9304;SDS011;4690;52.422;13.486;2022-09-06T07:37:56;5.35;;;2.10;;
9304;SDS011;4690;52.422;13.486;2022-09-06T07:40:25;2.42;;;1.95;;
9304;SDS011;4690;52.422;13.486;2022-09-06T07:42:56;4.28;;;2.50;;
9304;SDS011;4690;52.422;13.486;2022-09-06T07:45:23;3.55;;;2.20;;
9304;SDS011;4690;52.422;13.486;2022-09-06T07:47:53;2.92;;;2.40;;
9304;SDS011;4690;52.422;13.486;2022-09-06T07:50:26;2.33;;;2.13;;
9304;SDS011;4690;52.422;13.486;2022-09-06T07:52:53;4.28;;;2.38;;
9304;SDS011;4690;52.422;13.486;2022-09-06T07:55:18;3.25;;;2.40;;
9304;SDS011;4690;52.422;13.486;2022-09-06T07:57:44;4.00;;;2.58;;
9304;SDS011;4690;52.422;13.486;2022-09-06T08:00:11;2.40;;;2.20;;
9304;SDS011;4690;52.422;13.486;2022-09-06T08:02:37;4.05;;;2.38;;
9304;SDS011;4690;52.422;13.486;2022-09-06T08:05:04;6.68;;;2.60;;
9304;SDS011;4690;52.422;13.486;2022-09-06T08:07:31;3.55;;;2.40;;
9304;SDS011;4690;52.422;13.486;2022-09-06T08:09:56;3.42;;;2.67;;
9304;SDS011;4690;52.422;13.486;2022-09-06T08:12:22;4.22;;;2.60;;
9304;SDS011;4690;52.422;13.486;2022-09-06T08:14:49;3.30;;;2.60;;
9304;SDS011;4690;52.422;13.486;2022-09-06T08:17:15;2.33;;;2.10;;
9304;SDS011;4690;52.422;13.486;2022-09-06T08:19:40;6.30;;;2.65;;
9304;SDS011;4690;52.422;13.486;2022-09-06T08:22:06;4.10;;;2.75;;
9304;SDS011;4690;52.422;13.486;2022-09-06T08:24:32;2.70;;;2.50;;
9304;SDS011;4690;52.422;13.486;2022-09-06T08:26:59;4.55;;;2.70;;
9304;SDS011;4690;52.422;13.486;2022-09-06T08:29:26;4.53;;;2.90;;
9304;SDS011;4690;52.422;13.486;2022-09-06T08:31:52;2.75;;;2.47;;
9304;SDS011;4690;52.422;13.486;2022-09-06T08:34:18;4.55;;;2.72;;
9304;SDS011;4690;52.422;13.486;2022-09-06T08:36:43;5.47;;;2.60;;
9304;SDS011;4690;52.422;13.486;2022-09-06T08:39:10;5.65;;;2.55;;
9304;SDS011;4690;52.422;13.486;2022-09-06T08:47:17;5.85;;;2.97;;
9304;SDS011;4690;52.422;13.486;2022-09-06T08:49:54;5.88;;;2.72;;
9304;SDS011;4690;52.422;13.486;2022-09-06T08:55:54;6.05;;;2.80;;
9304;SDS011;4690;52.422;13.486;2022-09-06T09:01:40;5.30;;;2.67;;
9304;SDS011;4690;52.422;13.486;2022-09-06T09:04:35;5.43;;;2.70;;
9304;SDS011;4690;52.422;13.486;2022-09-06T09:07:54;4.97;;;2.67;;
9304;SDS011;4690;52.422;13.486;2022-09-06T09:10:10;3.88;;;3.00;;
9304;SDS011;4690;52.422;13.486;2022-09-06T09:12:47;5.43;;;3.08;;
9304;SDS011;4690;52.422;13.486;2022-09-06T09:15:16;9.05;;;3.58;;
9304;SDS011;4690;52.422;13.486;2022-09-06T09:17:44;4.97;;;3.10;;
9304;SDS011;4690;52.422;13.486;2022-09-06T09:20:14;3.20;;;2.50;;
9304;SDS011;4690;52.422;13.486;2022-09-06T09:22:41;3.78;;;2.70;;
9304;SDS011;4690;52.422;13.486;2022-09-06T09:25:11;9.20;;;3.28;;
9304;SDS011;4690;52.422;13.486;2022-09-06T09:27:44;3.28;;;2.72;;
9304;SDS011;4690;52.422;13.486;2022-09-06T09:30:12;4.82;;;3.20;;
9304;SDS011;4690;52.422;13.486;2022-09-06T09:32:44;6.95;;;3.10;;
9304;SDS011;4690;52.422;13.486;2022-09-06T09:38:11;5.50;;;3.20;;
9304;SDS011;4690;52.422;13.486;2022-09-06T09:48:39;7.03;;;3.25;;
9304;SDS011;4690;52.422;13.486;2022-09-06T09:51:23;5.03;;;3.60;;
9304;SDS011;4690;52.422;13.486;2022-09-06T09:53:51;5.38;;;3.40;;
9304;SDS011;4690;52.422;13.486;2022-09-06T09:56:26;4.60;;;3.40;;
9304;SDS011;4690;52.422;13.486;2022-09-06T09:59:41;6.97;;;3.70;;
9304;SDS011;4690;52.422;13.486;2022-09-06T10:02:24;4.18;;;3.40;;
9304;SDS011;4690;52.422;13.486;2022-09-06T10:05:08;4.75;;;3.95;;
9304;SDS011;4690;52.422;13.486;2022-09-06T10:07:45;4.00;;;3.58;;
9304;SDS011;4690;52.422;13.486;2022-09-06T10:10:14;4.30;;;3.90;;
9304;SDS011;4690;52.422;13.486;2022-09-06T10:12:47;7.05;;;3.50;;
9304;SDS011;4690;52.422;13.486;2022-09-06T10:15:36;5.30;;;3.13;;
9304;SDS011;4690;52.422;13.486;2022-09-06T10:18:05;4.82;;;3.42;;
9304;SDS011;4690;52.422;13.486;2022-09-06T10:20:51;4.85;;;3.38;;
9304;SDS011;4690;52.422;13.486;2022-09-06T10:23:41;4.45;;;3.92;;
9304;SDS011;4690;52.422;13.486;2022-09-06T10:29:11;5.13;;;3.60;;
9304;SDS011;4690;52.422;13.486;2022-09-06T10:39:58;3.83;;;3.42;;
9304;SDS011;4690;52.422;13.486;2022-09-06T10:42:49;4.55;;;3.60;;
9304;SDS011;4690;52.422;13.486;2022-09-06T10:50:48;5.57;;;3.65;;
9304;SDS011;4690;52.422;13.486;2022-09-06T11:05:24;5.90;;;3.47;;
9304;SDS011;4690;52.422;13.486;2022-09-06T11:08:12;4.03;;;3.65;;
9304;SDS011;4690;52.422;13.486;2022-09-06T11:10:58;4.40;;;3.50;;
9304;SDS011;4690;52.422;13.486;2022-09-06T11:13:39;5.85;;;4.32;;
9304;SDS011;4690;52.422;13.486;2022-09-06T11:16:06;4.70;;;3.60;;
9304;SDS011;4690;52.422;13.486;2022-09-06T11:19:05;4.00;;;3.60;;
9304;SDS011;4690;52.422;13.486;2022-09-06T11:28:23;5.78;;;3.50;;
9304;SDS011;4690;52.422;13.486;2022-09-06T11:30:59;5.53;;;3.70;;
9304;SDS011;4690;52.422;13.486;2022-09-06T11:33:29;4.93;;;3.50;;
9304;SDS011;4690;52.422;13.486;2022-09-06T11:36:27;5.65;;;3.70;;
9304;SDS011;4690;52.422;13.486;2022-09-06T11:39:02;6.70;;;3.85;;
9304;SDS011;4690;52.422;13.486;2022-09-06T11:41:33;3.90;;;3.60;;
9304;SDS011;4690;52.422;13.486;2022-09-06T11:44:06;6.43;;;3.75;;
9304;SDS011;4690;52.422;13.486;2022-09-06T11:49:03;7.43;;;3.90;;
9304;SDS011;4690;52.422;13.486;2022-09-06T11:54:02;4.78;;;3.92;;
9304;SDS011;4690;52.422;13.486;2022-09-06T11:56:39;5.95;;;4.25;;
9304;SDS011;4690;52.422;13.486;2022-09-06T11:59:41;4.68;;;3.90;;
9304;SDS011;4690;52.422;13.486;2022-09-06T12:07:27;5.35;;;3.95;;
9304;SDS011;4690;52.422;13.486;2022-09-06T12:09:55;6.18;;;4.05;;
9304;SDS011;4690;52.422;13.486;2022-09-06T12:12:46;6.03;;;4.03;;
9304;SDS011;4690;52.422;13.486;2022-09-06T12:15:27;4.63;;;4.15;;
9304;SDS011;4690;52.422;13.486;2022-09-06T12:19:15;5.88;;;4.00;;
9304;SDS011;4690;52.422;13.486;2022-09-06T12:21:30;4.65;;;4.10;;
9304;SDS011;4690;52.422;13.486;2022-09-06T12:24:06;4.90;;;4.05;;
9304;SDS011;4690;52.422;13.486;2022-09-06T12:35:31;4.72;;;3.55;;
9304;SDS011;4690;52.422;13.486;2022-09-06T12:40:31;6.15;;;3.90;;
9304;SDS011;4690;52.422;13.486;2022-09-06T12:43:03;4.93;;;4.10;;
9304;SDS011;4690;52.422;13.486;2022-09-06T12:45:29;5.72;;;3.88;;
9304;SDS011;4690;52.422;13.486;2022-09-06T12:48:30;5.90;;;3.90;;
9304;SDS011;4690;52.422;13.486;2022-09-06T12:53:32;4.13;;;3.67;;
9304;SDS011;4690;52.422;13.486;2022-09-06T12:56:18;4.68;;;3.88;;
9304;SDS011;4690;52.422;13.486;2022-09-06T12:58:47;4.72;;;4.22;;
9304;SDS011;4690;52.422;13.486;2022-09-06T13:06:26;6.20;;;3.85;;
9304;SDS011;4690;52.422;13.486;2022-09-06T13:08:57;7.63;;;4.20;;
9304;SDS011;4690;52.422;13.486;2022-09-06T13:11:31;5.85;;;4.13;;
9304;SDS011;4690;52.422;13.486;2022-09-06T13:14:08;6.68;;;4.18;;
9304;SDS011;4690;52.422;13.486;2022-09-06T13:16:47;4.78;;;4.38;;
9304;SDS011;4690;52.422;13.486;2022-09-06T13:19:17;7.68;;;4.13;;
9304;SDS011;4690;52.422;13.486;2022-09-06T13:22:06;6.65;;;4.22;;
9304;SDS011;4690;52.422;13.486;2022-09-06T13:27:22;5.15;;;4.18;;
9304;SDS011;4690;52.422;13.486;2022-09-06T13:29:57;10.75;;;4.22;;
9304;SDS011;4690;52.422;13.486;2022-09-06T13:32:27;6.03;;;4.30;;
9304;SDS011;4690;52.422;13.486;2022-09-06T13:34:53;9.90;;;4.70;;
9304;SDS011;4690;52.422;13.486;2022-09-06T13:37:31;6.82;;;4.20;;
9304;SDS011;4690;52.422;13.486;2022-09-06T13:40:00;6.07;;;4.40;;
9304;SDS011;4690;52.422;13.486;2022-09-06T13:42:30;6.55;;;4.47;;
9304;SDS011;4690;52.422;13.486;2022-09-06T13:47:55;5.47;;;4.57;;
9304;SDS011;4690;52.422;13.486;2022-09-06T13:50:21;6.47;;;4.10;;
9304;SDS011;4690;52.422;13.486;2022-09-06T13:52:49;7.47;;;4.05;;
9304;SDS011;4690;52.422;13.486;2022-09-06T13:55:15;6.78;;;5.03;;
9304;SDS011;4690;52.422;13.486;2022-09-06T13:57:44;5.25;;;4.50;;
9304;SDS011;4690;52.422;13.486;2022-09-06T14:00:10;5.53;;;4.22;;
9304;SDS011;4690;52.422;13.486;2022-09-06T14:02:38;7.53;;;4.35;;
9304;SDS011;4690;52.422;13.486;2022-09-06T14:05:06;4.63;;;4.03;;
9304;SDS011;4690;52.422;13.486;2022-09-06T14:07:32;6.97;;;4.15;;
9304;SDS011;4690;52.422;13.486;2022-09-06T14:09:57;7.07;;;4.70;;
9304;SDS011;4690;52.422;13.486;2022-09-06T14:12:25;5.85;;;4.50;;
9304;SDS011;4690;52.422;13.486;2022-09-06T14:14:51;5.65;;;4.38;;
9304;SDS011;4690;52.422;13.486;2022-09-06T14:17:17;4.90;;;4.40;;
9304;SDS011;4690;52.422;13.486;2022-09-06T14:19:43;6.25;;;4.15;;
9304;SDS011;4690;52.422;13.486;2022-09-06T14:22:10;6.55;;;4.65;;
9304;SDS011;4690;52.422;13.486;2022-09-06T14:24:36;5.55;;;4.60;;
9304;SDS011;4690;52.422;13.486;2022-09-06T14:27:02;4.63;;;4.22;;
9304;SDS011;4690;52.422;13.486;2022-09-06T14:29:30;7.45;;;4.45;;
9304;SDS011;4690;52.422;13.486;2022-09-06T14:31:58;7.07;;;4.38;;
9304;SDS011;4690;52.422;13.486;2022-09-06T14:34:25;7.22;;;4.50;;
9304;SDS011;4690;52.422;13.486;2022-09-06T14:36:51;7.57;;;4.43;;
9304;SDS011;4690;52.422;13.486;2022-09-06T14:39:17;4.35;;;3.95;;
9304;SDS011;4690;52.422;13.486;2022-09-06T14:41:43;5.47;;;4.18;;
9304;SDS011;4690;52.422;13.486;2022-09-06T14:44:09;6.25;;;4.00;;
9304;SDS011;4690;52.422;13.486;2022-09-06T14:46:35;4.97;;;4.45;;
9304;SDS011;4690;52.422;13.486;2022-09-06T14:49:02;7.05;;;4.85;;
9304;SDS011;4690;52.422;13.486;2022-09-06T14:51:31;5.70;;;4.00;;
9304;SDS011;4690;52.422;13.486;2022-09-06T14:54:00;5.55;;;4.32;;
9304;SDS011;4690;52.422;13.486;2022-09-06T14:56:30;5.38;;;4.18;;
9304;SDS011;4690;52.422;13.486;2022-09-06T14:58:56;7.53;;;4.38;;
9304;SDS011;4690;52.422;13.486;2022-09-06T15:01:24;7.88;;;4.63;;
9304;SDS011;4690;52.422;13.486;2022-09-06T15:03:54;6.70;;;4.28;;
9304;SDS011;4690;52.422;13.486;2022-09-06T15:06:23;5.88;;;4.38;;
9304;SDS011;4690;52.422;13.486;2022-09-06T15:08:51;5.03;;;4.45;;
9304;SDS011;4690;52.422;13.486;2022-09-06T15:13:58;5.93;;;4.60;;
9304;SDS011;4690;52.422;13.486;2022-09-06T15:16:26;5.82;;;4.30;;
9304;SDS011;4690;52.422;13.486;2022-09-06T15:18:54;6.03;;;4.65;;
9304;SDS011;4690;52.422;13.486;2022-09-06T15:21:21;5.88;;;4.15;;
9304;SDS011;4690;52.422;13.486;2022-09-06T15:23:47;5.65;;;4.07;;
9304;SDS011;4690;52.422;13.486;2022-09-06T15:26:18;5.95;;;4.10;;
9304;SDS011;4690;52.422;13.486;2022-09-06T15:28:45;5.63;;;4.57;;
9304;SDS011;4690;52.422;13.486;2022-09-06T15:31:11;9.48;;;4.57;;
9304;SDS011;4690;52.422;13.486;2022-09-06T15:33:39;7.40;;;4.50;;
9304;SDS011;4690;52.422;13.486;2022-09-06T15:36:06;5.22;;;4.50;;
9304;SDS011;4690;52.422;13.486;2022-09-06T15:38:34;5.20;;;4.38;;
9304;SDS011;4690;52.422;13.486;2022-09-06T15:41:11;11.18;;;5.10;;
9304;SDS011;4690;52.422;13.486;2022-09-06T15:43:45;5.95;;;4.47;;
9304;SDS011;4690;52.422;13.486;2022-09-06T15:46:17;6.68;;;4.47;;
9304;SDS011;4690;52.422;13.486;2022-09-06T15:48:54;8.98;;;4.60;;
9304;SDS011;4690;52.422;13.486;2022-09-06T15:51:20;5.28;;;4.50;;
9304;SDS011;4690;52.422;13.486;2022-09-06T15:53:46;4.85;;;4.35;;
9304;SDS011;4690;52.422;13.486;2022-09-06T15:56:13;4.95;;;4.45;;
9304;SDS011;4690;52.422;13.486;2022-09-06T15:58:41;5.93;;;4.30;;
9304;SDS011;4690;52.422;13.486;2022-09-06T16:01:16;6.35;;;4.47;;
9304;SDS011;4690;52.422;13.486;2022-09-06T16:03:49;6.22;;;4.68;;
9304;SDS011;4690;52.422;13.486;2022-09-06T16:06:27;4.53;;;4.10;;
9304;SDS011;4690;52.422;13.486;2022-09-06T16:09:06;7.38;;;4.50;;
9304;SDS011;4690;52.422;13.486;2022-09-06T16:11:35;6.85;;;4.55;;
9304;SDS011;4690;52.422;13.486;2022-09-06T16:14:05;5.43;;;4.40;;
9304;SDS011;4690;52.422;13.486;2022-09-06T16:16:36;9.75;;;4.20;;
9304;SDS011;4690;52.422;13.486;2022-09-06T16:19:02;6.07;;;4.78;;
9304;SDS011;4690;52.422;13.486;2022-09-06T16:21:29;5.53;;;4.22;;
9304;SDS011;4690;52.422;13.486;2022-09-06T16:24:00;4.65;;;4.25;;
9304;SDS011;4690;52.422;13.486;2022-09-06T16:26:30;5.43;;;4.68;;
9304;SDS011;4690;52.422;13.486;2022-09-06T16:28:59;4.95;;;4.03;;
9304;SDS011;4690;52.422;13.486;2022-09-06T16:31:27;4.53;;;4.13;;
9304;SDS011;4690;52.422;13.486;2022-09-06T16:33:53;5.28;;;4.20;;
9304;SDS011;4690;52.422;13.486;2022-09-06T16:36:21;7.00;;;4.80;;
9304;SDS011;4690;52.422;13.486;2022-09-06T16:38:49;6.97;;;4.63;;
9304;SDS011;4690;52.422;13.486;2022-09-06T16:41:23;5.22;;;4.40;;
9304;SDS011;4690;52.422;13.486;2022-09-06T16:43:52;6.85;;;4.20;;
9304;SDS011;4690;52.422;13.486;2022-09-06T16:46:20;7.78;;;4.57;;
9304;SDS011;4690;52.422;13.486;2022-09-06T16:48:52;4.78;;;4.28;;
9304;SDS011;4690;52.422;13.486;2022-09-06T16:51:20;5.55;;;4.13;;
9304;SDS011;4690;52.422;13.486;2022-09-06T16:53:49;8.32;;;4.47;;
9304;SDS011;4690;52.422;13.486;2022-09-06T16:56:17;4.85;;;4.03;;
9304;SDS011;4690;52.422;13.486;2022-09-06T16:58:49;4.53;;;3.97;;
9304;SDS011;4690;52.422;13.486;2022-09-06T17:01:17;6.05;;;4.28;;
9304;SDS011;4690;52.422;13.486;2022-09-06T17:03:44;5.60;;;4.15;;
9304;SDS011;4690;52.422;13.486;2022-09-06T17:06:11;8.70;;;4.35;;
9304;SDS011;4690;52.422;13.486;2022-09-06T17:08:38;4.78;;;4.38;;
9304;SDS011;4690;52.422;13.486;2022-09-06T17:11:05;5.82;;;4.07;;
9304;SDS011;4690;52.422;13.486;2022-09-06T17:13:38;4.65;;;3.88;;
9304;SDS011;4690;52.422;13.486;2022-09-06T17:16:06;4.50;;;4.10;;
9304;SDS011;4690;52.422;13.486;2022-09-06T17:18:51;5.68;;;4.00;;
9304;SDS011;4690;52.422;13.486;2022-09-06T17:21:18;4.30;;;3.90;;
9304;SDS011;4690;52.422;13.486;2022-09-06T17:23:48;4.75;;;4.18;;
9304;SDS011;4690;52.422;13.486;2022-09-06T17:26:16;6.13;;;4.10;;
9304;SDS011;4690;52.422;13.486;2022-09-06T17:28:45;6.97;;;4.20;;
9304;SDS011;4690;52.422;13.486;2022-09-06T17:31:12;4.18;;;3.75;;
9304;SDS011;4690;52.422;13.486;2022-09-06T17:33:38;5.40;;;3.85;;